createdAt,value
2019-05-05T00:00:45.838Z,23.30
2019-05-05T00:03:19.827Z,23.30
2019-05-05T00:05:47.728Z,23.30
2019-05-05T00:08:15.261Z,23.30
2019-05-05T00:10:59.658Z,23.30
2019-05-05T00:13:27.552Z,23.30
2019-05-05T00:15:55.498Z,23.30
2019-05-05T00:18:25.211Z,23.30
2019-05-05T00:20:51.275Z,23.30
2019-05-05T00:23:17.260Z,23.20
2019-05-05T00:25:44.759Z,23.20
2019-05-05T00:28:10.891Z,23.20
2019-05-05T00:30:37.062Z,23.20
2019-05-05T00:33:05.398Z,23.20
2019-05-05T00:35:30.944Z,23.20
2019-05-05T00:37:57.052Z,23.20
2019-05-05T00:40:24.787Z,23.20
2019-05-05T00:42:50.934Z,23.20
2019-05-05T00:45:16.999Z,23.20
2019-05-05T00:47:45.132Z,23.20
2019-05-05T00:50:14.562Z,23.20
2019-05-05T00:52:40.652Z,23.20
2019-05-05T00:55:06.616Z,23.20
2019-05-05T00:57:34.723Z,23.30
2019-05-05T01:00:00.546Z,23.30
2019-05-05T01:02:44.913Z,23.20
2019-05-05T01:05:30.896Z,23.20
2019-05-05T01:07:56.973Z,23.20
2019-05-05T01:10:24.763Z,23.20
2019-05-05T01:12:50.782Z,23.20
2019-05-05T01:15:16.747Z,23.20
2019-05-05T01:17:44.551Z,23.20
2019-05-05T01:20:10.571Z,23.10
2019-05-05T01:22:36.544Z,23.10
2019-05-05T01:25:02.500Z,23.10
2019-05-05T01:27:28.566Z,23.10
2019-05-05T01:29:54.740Z,23.10
2019-05-05T01:32:24.601Z,23.10
2019-05-05T01:34:50.579Z,23.10
2019-05-05T01:37:18.545Z,23.10
2019-05-05T01:39:46.443Z,23.10
2019-05-05T01:42:14.313Z,23.10
2019-05-05T01:44:40.479Z,23.10
2019-05-05T01:47:06.742Z,23.20
2019-05-05T01:49:34.404Z,23.20
2019-05-05T01:52:00.559Z,23.20
2019-05-05T01:54:26.520Z,23.20
2019-05-05T01:56:52.526Z,23.20
2019-05-05T01:59:18.525Z,23.10
2019-05-05T02:01:44.659Z,23.20
2019-05-05T02:04:10.711Z,23.10
2019-05-05T02:06:36.656Z,23.10
2019-05-05T02:09:02.754Z,23.10
2019-05-05T02:11:28.893Z,23.10
2019-05-05T02:13:54.862Z,23.10
2019-05-05T02:16:21.014Z,23.10
2019-05-05T02:18:47.049Z,23.10
2019-05-05T02:21:14.284Z,23.10
2019-05-05T02:23:40.414Z,23.10
2019-05-05T02:26:06.689Z,23.10
2019-05-05T02:28:34.758Z,23.10
2019-05-05T02:31:08.519Z,23.20
2019-05-05T02:33:35.431Z,23.20
2019-05-05T02:36:01.609Z,23.20
2019-05-05T02:38:27.652Z,23.20
2019-05-05T02:40:54.871Z,23.20
2019-05-05T02:43:21.116Z,23.30
2019-05-05T02:45:49.074Z,23.30
2019-05-05T02:48:15.558Z,23.30
2019-05-05T02:50:55.920Z,23.30
2019-05-05T02:53:17.541Z,23.30
2019-05-05T02:55:44.222Z,23.30
2019-05-05T02:58:10.303Z,23.30
2019-05-05T03:00:41.050Z,23.30
2019-05-05T03:03:07.833Z,23.30
2019-05-05T03:05:34.148Z,23.30
2019-05-05T03:08:00.198Z,23.20
2019-05-05T03:10:26.293Z,23.20
2019-05-05T03:12:54.271Z,23.20
2019-05-05T03:15:20.249Z,23.20
2019-05-05T03:17:46.258Z,23.30
2019-05-05T03:20:14.444Z,23.30
2019-05-05T03:22:40.188Z,23.30
2019-05-05T03:25:06.255Z,23.30
2019-05-05T03:27:34.124Z,23.40
2019-05-05T03:30:00.569Z,23.30
2019-05-05T03:32:26.713Z,23.30
2019-05-05T03:34:53.685Z,23.30
2019-05-05T03:37:19.780Z,23.30
2019-05-05T03:39:47.663Z,23.30
2019-05-05T03:42:27.674Z,23.30
2019-05-05T03:45:04.456Z,23.30
2019-05-05T03:47:30.544Z,23.30
2019-05-05T03:49:56.540Z,23.30
2019-05-05T03:52:24.313Z,23.30
2019-05-05T03:54:50.426Z,23.30
2019-05-05T03:57:16.359Z,23.30
2019-05-05T03:59:44.170Z,23.30
2019-05-05T04:02:14.817Z,23.20
2019-05-05T04:04:51.694Z,23.30
2019-05-05T04:07:17.678Z,23.30
2019-05-05T04:09:43.867Z,23.30
2019-05-05T04:12:09.874Z,23.30
2019-05-05T04:14:35.825Z,23.20
2019-05-05T04:17:14.192Z,23.30
2019-05-05T04:19:54.301Z,23.20
2019-05-05T04:22:20.334Z,23.20
2019-05-05T04:24:46.353Z,23.20
2019-05-05T04:27:14.394Z,23.20
2019-05-05T04:29:40.289Z,23.20
2019-05-05T04:32:06.270Z,23.20
2019-05-05T04:34:32.233Z,23.20
2019-05-05T04:36:58.283Z,23.20
2019-05-05T04:39:24.336Z,23.20
2019-05-05T04:41:50.322Z,23.20
2019-05-05T04:44:17.908Z,23.20
2019-05-05T04:46:46.054Z,23.20
2019-05-05T04:49:19.760Z,23.20
2019-05-05T04:51:50.303Z,23.20
2019-05-05T04:54:24.426Z,23.20
2019-05-05T04:56:50.566Z,23.20
2019-05-05T04:59:16.743Z,23.20
2019-05-05T05:01:43.993Z,23.20
2019-05-05T05:04:24.371Z,23.20
2019-05-05T05:06:54.233Z,23.20
2019-05-05T05:09:20.270Z,23.20
2019-05-05T05:11:46.356Z,23.20
2019-05-05T05:14:14.233Z,23.20
2019-05-05T05:16:40.345Z,23.20
2019-05-05T05:19:06.319Z,23.20
2019-05-05T05:21:34.133Z,23.20
2019-05-05T05:24:00.272Z,23.20
2019-05-05T05:26:26.230Z,23.20
2019-05-05T05:28:53.849Z,23.20
2019-05-05T05:31:19.963Z,23.20
2019-05-05T05:33:45.946Z,23.20
2019-05-05T05:36:13.840Z,23.20
2019-05-05T05:38:40.867Z,23.10
2019-05-05T05:41:13.505Z,23.10
2019-05-05T05:43:41.403Z,23.00
2019-05-05T05:46:15.168Z,23.00
2019-05-05T05:48:59.551Z,23.00
2019-05-05T05:51:25.553Z,22.90
2019-05-05T05:53:51.566Z,22.90
2019-05-05T05:56:17.651Z,22.90
2019-05-05T05:58:44.201Z,22.90
2019-05-05T06:01:10.307Z,23.00
2019-05-05T06:03:36.413Z,23.00
2019-05-05T06:06:04.498Z,23.10
2019-05-05T06:08:30.417Z,23.10
2019-05-05T06:10:56.487Z,23.10
2019-05-05T06:13:24.200Z,23.10
2019-05-05T06:15:50.393Z,23.20
2019-05-05T06:18:16.449Z,23.20
2019-05-05T06:20:44.365Z,23.20
2019-05-05T06:23:10.331Z,23.20
2019-05-05T06:25:38.045Z,23.20
2019-05-05T06:28:04.469Z,23.20
2019-05-05T06:30:30.574Z,23.20
2019-05-05T06:32:56.566Z,23.20
2019-05-05T06:35:24.318Z,23.30
2019-05-05T06:37:54.343Z,23.30
2019-05-05T06:40:23.377Z,23.30
2019-05-05T06:43:04.529Z,23.30
2019-05-05T06:45:35.474Z,23.30
2019-05-05T06:48:01.424Z,23.40
2019-05-05T06:50:27.515Z,23.40
2019-05-05T06:52:53.717Z,23.40
2019-05-05T06:55:19.796Z,23.40
2019-05-05T06:57:45.881Z,23.40
2019-05-05T07:00:13.843Z,23.40
2019-05-05T07:02:39.773Z,23.50
2019-05-05T07:05:05.752Z,23.40
2019-05-05T07:07:34.104Z,23.50
2019-05-05T07:09:59.768Z,23.50
2019-05-05T07:12:25.797Z,23.50
2019-05-05T07:14:53.784Z,23.60
2019-05-05T07:17:19.782Z,23.60
2019-05-05T07:19:45.731Z,23.60
2019-05-05T07:22:14.017Z,23.60
2019-05-05T07:24:40.443Z,23.60
2019-05-05T07:27:06.445Z,23.60
2019-05-05T07:29:34.299Z,23.60
2019-05-05T07:32:00.282Z,23.60
2019-05-05T07:34:28.231Z,23.50
2019-05-05T07:36:54.902Z,23.50
2019-05-05T07:39:20.961Z,23.50
2019-05-05T07:41:47.024Z,23.50
2019-05-05T07:44:25.898Z,23.50
2019-05-05T07:46:40.935Z,23.40
2019-05-05T07:49:07.006Z,23.40
2019-05-05T07:51:33.612Z,23.40
2019-05-05T07:53:59.803Z,23.40
2019-05-05T07:56:25.788Z,23.40
2019-05-05T07:58:51.779Z,23.40
2019-05-05T08:01:17.846Z,23.40
2019-05-05T08:03:44.586Z,23.40
2019-05-05T08:06:10.823Z,23.40
2019-05-05T08:08:36.797Z,23.40
2019-05-05T08:11:04.822Z,23.40
2019-05-05T08:13:30.755Z,23.40
2019-05-05T08:16:00.157Z,23.40
2019-05-05T08:18:28.169Z,23.40
2019-05-05T08:20:56.159Z,23.40
2019-05-05T08:23:31.726Z,23.40
2019-05-05T08:25:56.649Z,23.40
2019-05-05T08:28:24.555Z,23.40
2019-05-05T08:30:55.546Z,23.40
2019-05-05T08:33:21.624Z,23.40
2019-05-05T08:35:47.694Z,23.40
2019-05-05T08:38:13.885Z,23.50
2019-05-05T08:40:39.967Z,23.40
2019-05-05T08:43:06.023Z,23.40
2019-05-05T08:45:31.999Z,23.50
2019-05-05T08:47:58.106Z,23.50
2019-05-05T08:50:26.982Z,23.40
2019-05-05T08:52:53.722Z,23.50
2019-05-05T08:55:19.825Z,23.50
2019-05-05T08:57:45.884Z,23.50
2019-05-05T09:00:13.817Z,23.40
2019-05-05T09:02:39.790Z,23.50
2019-05-05T09:05:06.013Z,23.50
2019-05-05T09:07:33.629Z,23.50
2019-05-05T09:09:59.742Z,23.50
2019-05-05T09:12:25.794Z,23.50
2019-05-05T09:14:53.816Z,23.50
2019-05-05T09:17:19.688Z,23.50
2019-05-05T09:19:45.663Z,23.40
2019-05-05T09:22:13.826Z,23.50
2019-05-05T09:24:44.578Z,23.50
2019-05-05T09:27:18.718Z,23.50
2019-05-05T09:29:45.579Z,23.40
2019-05-05T09:32:13.737Z,23.40
2019-05-05T09:34:39.550Z,23.50
2019-05-05T09:37:05.508Z,23.40
2019-05-05T09:39:31.585Z,23.50
2019-05-05T09:41:57.659Z,23.40
2019-05-05T09:44:24.147Z,23.40
2019-05-05T09:46:50.276Z,23.40
2019-05-05T09:49:16.350Z,23.50
2019-05-05T09:51:43.979Z,23.50
2019-05-05T09:54:13.911Z,23.40
2019-05-05T09:56:38.038Z,23.50
2019-05-05T09:59:04.032Z,23.50
2019-05-05T10:01:30.096Z,23.50
2019-05-05T10:03:57.988Z,23.50
2019-05-05T10:06:24.421Z,23.50
2019-05-05T10:08:50.492Z,23.50
2019-05-05T10:11:16.777Z,23.40
2019-05-05T10:13:44.251Z,23.50
2019-05-05T10:16:10.433Z,23.50
2019-05-05T10:18:36.459Z,23.40
2019-05-05T10:21:04.480Z,23.50
2019-05-05T10:23:34.054Z,23.50
2019-05-05T10:26:01.956Z,23.50
2019-05-05T10:28:27.906Z,23.50
2019-05-05T10:30:53.972Z,23.50
2019-05-05T10:33:20.072Z,23.50
2019-05-05T10:35:46.096Z,23.50
2019-05-05T10:38:14.079Z,23.50
2019-05-05T10:40:39.959Z,23.50
2019-05-05T10:43:06.055Z,23.50
2019-05-05T10:45:32.149Z,23.40
2019-05-05T10:47:58.198Z,23.40
2019-05-05T10:50:24.853Z,23.40
2019-05-05T10:52:50.953Z,23.40
2019-05-05T10:55:16.936Z,23.40
2019-05-05T10:57:43.599Z,23.40
2019-05-05T11:00:12.693Z,23.40
2019-05-05T11:02:37.621Z,23.40
2019-05-05T11:05:04.120Z,23.40
2019-05-05T11:07:30.158Z,23.40
2019-05-05T11:09:56.223Z,23.40
2019-05-05T11:12:24.578Z,23.40
2019-05-05T11:14:50.207Z,23.40
2019-05-05T11:17:16.263Z,23.30
2019-05-05T11:19:44.131Z,23.30
2019-05-05T11:22:10.141Z,23.30
2019-05-05T11:24:36.193Z,23.30
2019-05-05T11:27:04.309Z,23.30
2019-05-05T11:29:30.125Z,23.30
2019-05-05T11:31:57.709Z,23.30
2019-05-05T11:34:25.615Z,23.30
2019-05-05T11:36:59.674Z,23.30
2019-05-05T11:39:25.833Z,23.20
2019-05-05T11:41:51.882Z,23.20
2019-05-05T11:44:17.833Z,23.20
2019-05-05T11:46:44.334Z,23.20
2019-05-05T11:49:10.509Z,23.20
2019-05-05T11:51:36.579Z,23.20
2019-05-05T11:54:04.496Z,23.20
2019-05-05T11:56:30.509Z,23.20
2019-05-05T11:58:56.608Z,23.20
2019-05-05T12:01:24.279Z,23.20
2019-05-05T12:03:50.495Z,23.20
2019-05-05T12:06:16.490Z,23.20
2019-05-05T12:08:45.478Z,23.20
2019-05-05T12:11:10.315Z,23.30
2019-05-05T12:13:36.281Z,23.30
2019-05-05T12:16:04.595Z,23.30
2019-05-05T12:18:30.807Z,23.30
2019-05-05T12:20:56.773Z,23.30
2019-05-05T12:23:22.786Z,23.30
2019-05-05T12:25:50.744Z,23.30
2019-05-05T12:28:24.496Z,23.40
2019-05-05T12:30:50.550Z,23.40
2019-05-05T12:33:16.551Z,23.40
2019-05-05T12:35:44.501Z,23.40
2019-05-05T12:38:10.388Z,23.40
2019-05-05T12:40:36.439Z,23.40
2019-05-05T12:43:04.718Z,23.40
2019-05-05T12:45:34.144Z,23.40
2019-05-05T12:48:13.352Z,23.40
2019-05-05T12:50:39.357Z,23.50
2019-05-05T12:53:05.329Z,23.50
2019-05-05T12:55:38.914Z,23.50
2019-05-05T12:57:59.242Z,23.50
2019-05-05T13:00:25.507Z,23.50
2019-05-05T13:02:53.687Z,23.40
2019-05-05T13:05:19.344Z,23.50
2019-05-05T13:07:45.365Z,23.50
2019-05-05T13:10:11.429Z,23.40
2019-05-05T13:12:37.396Z,23.40
2019-05-05T13:15:04.068Z,23.40
2019-05-05T13:17:30.235Z,23.50
2019-05-05T13:20:01.143Z,23.50
2019-05-05T13:22:38.096Z,23.50
2019-05-05T13:25:06.001Z,23.50
2019-05-05T13:27:34.350Z,23.40
2019-05-05T13:30:00.482Z,23.40
2019-05-05T13:32:26.478Z,23.40
2019-05-05T13:34:54.508Z,23.40
2019-05-05T13:37:20.496Z,23.40
2019-05-05T13:39:46.565Z,23.30
2019-05-05T13:42:13.825Z,23.30
2019-05-05T13:44:53.974Z,23.30
2019-05-05T13:47:19.985Z,23.30
2019-05-05T13:49:46.185Z,23.30
2019-05-05T13:52:13.916Z,23.30
2019-05-05T13:54:40.073Z,23.20
2019-05-05T13:57:06.132Z,23.30
2019-05-05T13:59:33.954Z,23.30
2019-05-05T14:01:59.988Z,23.30
2019-05-05T14:04:25.946Z,23.30
2019-05-05T14:06:51.933Z,23.30
2019-05-05T14:09:17.963Z,23.30
2019-05-05T14:11:44.621Z,23.30
2019-05-05T14:14:10.671Z,23.30
2019-05-05T14:16:36.628Z,23.30
2019-05-05T14:19:04.402Z,23.30
2019-05-05T14:21:30.490Z,23.30
2019-05-05T14:23:58.363Z,23.30
2019-05-05T14:26:27.955Z,23.30
2019-05-05T14:28:53.640Z,23.30
2019-05-05T14:31:30.528Z,23.30
2019-05-05T14:33:58.512Z,23.30
2019-05-05T14:36:33.532Z,23.30
2019-05-05T14:39:00.814Z,23.30
2019-05-05T14:41:26.779Z,23.30
2019-05-05T14:43:54.585Z,23.30
2019-05-05T14:46:20.659Z,23.30
2019-05-05T14:48:46.746Z,23.30
2019-05-05T14:51:14.499Z,23.30
2019-05-05T14:53:40.623Z,23.30
2019-05-05T14:56:06.696Z,23.30
2019-05-05T14:58:32.798Z,23.30
2019-05-05T15:00:58.888Z,23.30
2019-05-05T15:03:24.875Z,23.30
2019-05-05T15:06:03.867Z,23.30
2019-05-05T15:08:40.667Z,23.20
2019-05-05T15:11:26.797Z,23.20
2019-05-05T15:13:54.086Z,23.20
2019-05-05T15:16:20.192Z,23.20
2019-05-05T15:18:46.210Z,23.20
2019-05-05T15:21:12.255Z,23.20
2019-05-05T15:23:38.219Z,23.20
2019-05-05T15:26:04.562Z,23.20
2019-05-05T15:28:30.708Z,23.20
2019-05-05T15:30:56.667Z,23.20
2019-05-05T15:33:24.317Z,23.20
2019-05-05T15:35:50.535Z,23.20
2019-05-05T15:38:16.613Z,23.20
2019-05-05T15:40:44.514Z,23.20
2019-05-05T15:43:10.452Z,23.20
2019-05-05T15:45:36.443Z,23.20
2019-05-05T15:48:04.434Z,23.20
2019-05-05T15:50:30.358Z,23.20
2019-05-05T15:52:56.377Z,23.30
2019-05-05T15:55:24.427Z,23.30
2019-05-05T15:57:50.359Z,23.30
2019-05-05T16:00:16.468Z,23.20
2019-05-05T16:02:44.228Z,23.20
2019-05-05T16:05:10.419Z,23.20
2019-05-05T16:07:36.466Z,23.20
2019-05-05T16:10:04.086Z,23.20
2019-05-05T16:12:34.109Z,23.20
2019-05-05T16:15:04.490Z,23.30
2019-05-05T16:17:35.599Z,23.30
2019-05-05T16:20:04.563Z,23.20
2019-05-05T16:22:34.647Z,23.20
2019-05-05T16:25:09.641Z,23.20
2019-05-05T16:27:35.748Z,23.20
2019-05-05T16:30:05.502Z,23.20
2019-05-05T16:32:29.615Z,23.20
2019-05-05T16:34:55.587Z,23.20
2019-05-05T16:37:23.506Z,23.10
2019-05-05T16:39:49.462Z,23.20
2019-05-05T16:42:15.434Z,23.20
2019-05-05T16:44:43.285Z,23.20
2019-05-05T16:47:09.416Z,23.20
2019-05-05T16:49:35.596Z,23.20
2019-05-05T16:52:04.071Z,23.20
2019-05-05T16:54:33.649Z,23.20
2019-05-05T16:56:59.687Z,23.20
2019-05-05T16:59:25.627Z,23.20
2019-05-05T17:01:53.950Z,23.20
2019-05-05T17:04:19.535Z,23.30
2019-05-05T17:06:45.822Z,23.20
2019-05-05T17:09:12.006Z,23.30
2019-05-05T17:11:38.083Z,23.30
2019-05-05T17:14:05.994Z,23.30
2019-05-05T17:16:51.869Z,23.30
2019-05-05T17:19:25.797Z,23.30
2019-05-05T17:22:11.656Z,23.40
2019-05-05T17:24:38.885Z,23.40
2019-05-05T17:27:05.164Z,23.40
2019-05-05T17:29:31.316Z,23.40
2019-05-05T17:31:57.420Z,23.40
2019-05-05T17:34:24.659Z,23.40
2019-05-05T17:36:50.991Z,23.40
2019-05-05T17:39:17.710Z,23.40
2019-05-05T17:41:48.625Z,23.40
2019-05-05T17:44:16.808Z,23.40
2019-05-05T17:46:47.760Z,23.50
2019-05-05T17:49:15.807Z,23.50
2019-05-05T17:51:43.818Z,23.50
2019-05-05T17:54:28.316Z,23.50
2019-05-05T17:56:55.035Z,23.50
2019-05-05T17:59:21.317Z,23.60
2019-05-05T18:01:47.318Z,23.60
2019-05-05T18:04:13.645Z,23.60
2019-05-05T18:06:44.368Z,23.60
2019-05-05T18:09:13.989Z,23.60
2019-05-05T18:11:44.074Z,23.60
2019-05-05T18:14:20.938Z,23.60
2019-05-05T18:16:47.304Z,23.50
2019-05-05T18:19:14.033Z,23.50
2019-05-05T18:21:40.129Z,23.50
2019-05-05T18:24:06.232Z,23.50
2019-05-05T18:26:34.103Z,23.50
2019-05-05T18:29:00.252Z,23.40
2019-05-05T18:31:26.371Z,23.40
2019-05-05T18:33:54.345Z,23.40
2019-05-05T18:36:20.660Z,23.40
2019-05-05T18:38:46.772Z,23.40
2019-05-05T18:41:14.817Z,23.40
2019-05-05T18:43:57.981Z,23.40
2019-05-05T18:46:24.458Z,23.40
2019-05-05T18:48:50.572Z,23.40
2019-05-05T18:51:16.767Z,23.40
2019-05-05T18:53:43.633Z,23.40
2019-05-05T18:56:09.809Z,23.40
2019-05-05T18:58:36.572Z,23.40
2019-05-05T19:01:16.860Z,23.40
2019-05-05T19:03:44.881Z,23.40
2019-05-05T19:06:19.013Z,23.40
2019-05-05T19:08:57.221Z,23.40
2019-05-05T19:11:26.191Z,23.40
2019-05-05T19:13:54.109Z,23.40
2019-05-05T19:16:20.257Z,23.40
2019-05-05T19:18:46.370Z,23.40
2019-05-05T19:21:33.985Z,23.40
2019-05-05T19:24:00.241Z,23.40
2019-05-05T19:26:26.235Z,23.40
2019-05-05T19:28:54.608Z,23.40
2019-05-05T19:31:20.327Z,23.40
2019-05-05T19:33:46.413Z,23.30
2019-05-05T19:36:12.406Z,23.40
2019-05-05T19:38:38.488Z,23.40
2019-05-05T19:41:04.485Z,23.30
2019-05-05T19:43:30.439Z,23.30
2019-05-05T19:45:56.455Z,23.40
2019-05-05T19:48:24.425Z,23.30
2019-05-05T19:50:54.085Z,23.30
2019-05-05T19:53:24.593Z,23.30
2019-05-05T19:55:50.832Z,23.30
2019-05-05T19:58:16.918Z,23.30
2019-05-05T20:00:43.878Z,23.30
2019-05-05T20:03:11.074Z,23.30
2019-05-05T20:05:37.129Z,23.30
2019-05-05T20:08:03.939Z,23.40
2019-05-05T20:10:30.242Z,23.30
2019-05-05T20:12:56.236Z,23.30
2019-05-05T20:15:27.233Z,23.30
2019-05-05T20:17:53.926Z,23.30
2019-05-05T20:20:20.101Z,23.30
2019-05-05T20:22:46.160Z,23.30
2019-05-05T20:25:13.991Z,23.20
2019-05-05T20:27:40.109Z,23.20
2019-05-05T20:30:06.636Z,23.20
2019-05-05T20:32:34.739Z,23.20
2019-05-05T20:35:05.481Z,23.20
2019-05-05T20:37:49.884Z,23.20
2019-05-05T20:40:17.908Z,23.20
2019-05-05T20:42:44.819Z,23.20
2019-05-05T20:45:14.572Z,23.20
2019-05-05T20:47:40.647Z,23.20
2019-05-05T20:50:06.774Z,23.20
2019-05-05T20:52:34.544Z,23.20
2019-05-05T20:55:00.667Z,23.20
2019-05-05T20:57:26.729Z,23.20
2019-05-05T20:59:52.797Z,23.10
2019-05-05T21:02:18.877Z,23.10
2019-05-05T21:04:44.829Z,23.10
2019-05-05T21:07:10.844Z,23.10
2019-05-05T21:09:36.924Z,23.10
2019-05-05T21:12:04.766Z,23.10
2019-05-05T21:14:34.581Z,23.10
2019-05-05T21:16:58.656Z,23.10
2019-05-05T21:19:24.839Z,23.10
2019-05-05T21:21:54.423Z,23.10
2019-05-05T21:24:20.708Z,23.10
2019-05-05T21:26:48.681Z,23.10
2019-05-05T21:29:15.045Z,23.10
2019-05-05T21:31:41.026Z,23.10
2019-05-05T21:34:07.121Z,23.10
2019-05-05T21:36:33.648Z,23.10
2019-05-05T21:38:59.712Z,23.00
2019-05-05T21:41:25.685Z,23.00
2019-05-05T21:43:53.947Z,23.00
2019-05-05T21:46:19.646Z,23.00
2019-05-05T21:48:45.714Z,23.00
2019-05-05T21:51:19.660Z,23.00
2019-05-05T21:53:53.787Z,23.00
2019-05-05T21:56:27.773Z,23.00
2019-05-05T21:58:55.469Z,23.00
2019-05-05T22:01:21.768Z,23.00
2019-05-05T22:03:47.859Z,23.10
2019-05-05T22:06:14.563Z,23.10
2019-05-05T22:08:40.826Z,23.00
2019-05-05T22:11:06.775Z,23.00
2019-05-05T22:13:36.281Z,23.00
2019-05-05T22:16:00.590Z,23.00
2019-05-05T22:18:26.546Z,23.00
2019-05-05T22:21:04.452Z,23.00
2019-05-05T22:23:30.602Z,23.00
2019-05-05T22:25:56.638Z,23.00
2019-05-05T22:28:24.299Z,23.00
2019-05-05T22:30:50.576Z,23.00
2019-05-05T22:33:16.551Z,23.00
2019-05-05T22:35:44.242Z,23.00
2019-05-05T22:38:10.279Z,23.00
2019-05-05T22:40:36.317Z,23.00
2019-05-05T22:43:05.344Z,23.00
2019-05-05T22:45:31.301Z,23.00
2019-05-05T22:47:57.290Z,23.00
2019-05-05T22:50:24.688Z,23.00
2019-05-05T22:52:50.821Z,23.00
2019-05-05T22:55:16.786Z,23.00
2019-05-05T22:57:45.091Z,23.00
2019-05-05T23:00:25.247Z,23.00
2019-05-05T23:02:40.589Z,23.00
2019-05-05T23:05:14.714Z,23.00
2019-05-05T23:07:40.774Z,23.00
2019-05-05T23:10:06.748Z,23.00
2019-05-05T23:12:34.910Z,23.00
2019-05-05T23:15:00.897Z,23.00
2019-05-05T23:17:43.898Z,23.00
2019-05-05T23:20:13.505Z,22.90
2019-05-05T23:22:56.573Z,23.00
2019-05-05T23:25:27.302Z,23.00
2019-05-05T23:27:54.710Z,23.00
2019-05-05T23:30:23.806Z,23.00
2019-05-05T23:32:50.046Z,23.00
2019-05-05T23:35:16.032Z,23.00
2019-05-05T23:37:42.004Z,23.00
2019-05-05T23:40:07.971Z,23.00
2019-05-05T23:42:33.937Z,23.00
2019-05-05T23:44:59.999Z,23.00
2019-05-05T23:47:25.972Z,23.00
2019-05-05T23:49:53.754Z,23.00
2019-05-05T23:52:19.885Z,23.00
2019-05-05T23:54:45.867Z,23.00
2019-05-05T23:57:13.716Z,23.00
2019-05-05T23:59:39.781Z,22.90
